sensor_id;sensor_type;location;lat;lon;timestamp;pressure;altitude;pressure_sealevel;temperature;humidity
44825;BME280;30542;47.928;2.138;2023-05-23T00:01:57;100721.91;;;22.84;51.39
44825;BME280;30542;47.928;2.138;2023-05-23T00:06:59;100713.03;;;22.83;51.30
44825;BME280;30542;47.928;2.138;2023-05-23T00:11:59;100720.28;;;22.83;51.03
44825;BME280;30542;47.928;2.138;2023-05-23T00:17:00;100721.09;;;22.83;50.98
44825;BME280;30542;47.928;2.138;2023-05-23T00:22:00;100716.53;;;22.79;51.22
44825;BME280;30542;47.928;2.138;2023-05-23T00:27:02;100725.38;;;22.84;51.06
44825;BME280;30542;47.928;2.138;2023-05-23T00:32:03;100718.41;;;22.83;51.13
44825;BME280;30542;47.928;2.138;2023-05-23T00:37:03;100720.28;;;22.83;50.77
44825;BME280;30542;47.928;2.138;2023-05-23T00:42:04;100718.94;;;22.80;51.30
44825;BME280;30542;47.928;2.138;2023-05-23T00:47:06;100715.47;;;22.80;51.06
44825;BME280;30542;47.928;2.138;2023-05-23T00:52:06;100721.91;;;22.79;51.43
44825;BME280;30542;47.928;2.138;2023-05-23T00:57:07;100717.88;;;22.76;51.51
44825;BME280;30542;47.928;2.138;2023-05-23T01:02:07;100704.22;;;22.73;51.51
44825;BME280;30542;47.928;2.138;2023-05-23T01:07:08;100716.56;;;22.74;51.29
44825;BME280;30542;47.928;2.138;2023-05-23T01:17:14;100701.53;;;22.73;51.72
44825;BME280;30542;47.928;2.138;2023-05-23T01:22:32;100713.34;;;22.72;51.90
44825;BME280;30542;47.928;2.138;2023-05-23T01:27:46;100698.03;;;22.72;51.78
44825;BME280;30542;47.928;2.138;2023-05-23T01:32:50;100700.72;;;22.72;51.78
44825;BME280;30542;47.928;2.138;2023-05-23T01:37:55;100701.78;;;22.71;51.70
44825;BME280;30542;47.928;2.138;2023-05-23T01:42:56;100694.28;;;22.73;51.76
44825;BME280;30542;47.928;2.138;2023-05-23T01:47:57;100703.69;;;22.71;51.71
44825;BME280;30542;47.928;2.138;2023-05-23T01:52:58;100699.91;;;22.72;51.82
44825;BME280;30542;47.928;2.138;2023-05-23T01:57:59;100701.00;;;22.71;51.80
44825;BME280;30542;47.928;2.138;2023-05-23T02:03:01;100692.94;;;22.71;51.87
44825;BME280;30542;47.928;2.138;2023-05-23T02:08:02;100689.44;;;22.70;51.84
44825;BME280;30542;47.928;2.138;2023-05-23T02:13:02;100699.38;;;22.70;51.57
44825;BME280;30542;47.928;2.138;2023-05-23T02:18:03;100692.13;;;22.70;51.68
44825;BME280;30542;47.928;2.138;2023-05-23T02:23:05;100699.38;;;22.70;51.64
44825;BME280;30542;47.928;2.138;2023-05-23T02:28:05;100712.00;;;22.69;51.75
44825;BME280;30542;47.928;2.138;2023-05-23T02:33:06;100699.38;;;22.70;51.50
44825;BME280;30542;47.928;2.138;2023-05-23T02:38:07;100697.78;;;22.69;51.33
44825;BME280;30542;47.928;2.138;2023-05-23T02:43:07;100703.69;;;22.71;51.24
44825;BME280;30542;47.928;2.138;2023-05-23T02:48:08;100702.59;;;22.72;51.61
44825;BME280;30542;47.928;2.138;2023-05-23T02:53:08;100682.72;;;22.68;51.15
44825;BME280;30542;47.928;2.138;2023-05-23T02:58:08;100654.88;;;22.43;51.36
44825;BME280;30542;47.928;2.138;2023-05-23T03:03:09;100688.91;;;22.68;51.68
44825;BME280;30542;47.928;2.138;2023-05-23T03:08:10;100694.28;;;22.68;51.50
44825;BME280;30542;47.928;2.138;2023-05-23T03:13:11;100688.09;;;22.68;51.07
44825;BME280;30542;47.928;2.138;2023-05-23T03:18:11;100691.88;;;22.67;51.25
44825;BME280;30542;47.928;2.138;2023-05-23T03:23:11;100691.06;;;22.66;51.17
44825;BME280;30542;47.928;2.138;2023-05-23T03:28:12;100699.41;;;22.65;51.21
44825;BME280;30542;47.928;2.138;2023-05-23T03:33:12;100695.88;;;22.64;51.43
44825;BME280;30542;47.928;2.138;2023-05-23T03:38:13;100697.53;;;22.65;51.33
44825;BME280;30542;47.928;2.138;2023-05-23T03:43:14;100702.09;;;22.65;51.66
44825;BME280;30542;47.928;2.138;2023-05-23T03:48:14;100695.88;;;22.64;51.18
44825;BME280;30542;47.928;2.138;2023-05-23T03:53:15;100690.81;;;22.63;50.97
44825;BME280;30542;47.928;2.138;2023-05-23T03:58:15;100696.97;;;22.63;51.02
44825;BME280;30542;47.928;2.138;2023-05-23T04:03:15;100709.59;;;22.63;51.02
44825;BME280;30542;47.928;2.138;2023-05-23T04:08:16;100705.56;;;22.60;51.03
44825;BME280;30542;47.928;2.138;2023-05-23T04:13:20;100714.16;;;22.62;50.97
44825;BME280;30542;47.928;2.138;2023-05-23T04:18:22;100714.97;;;22.63;50.93
44825;BME280;30542;47.928;2.138;2023-05-23T04:23:23;100706.91;;;22.63;50.90
44825;BME280;30542;47.928;2.138;2023-05-23T04:28:24;100708.00;;;22.62;50.79
44825;BME280;30542;47.928;2.138;2023-05-23T04:33:25;100708.00;;;22.62;50.80
44825;BME280;30542;47.928;2.138;2023-05-23T04:38:27;100705.31;;;22.62;51.12
44825;BME280;30542;47.928;2.138;2023-05-23T04:43:27;100709.09;;;22.61;51.04
44825;BME280;30542;47.928;2.138;2023-05-23T04:48:28;100717.38;;;22.59;50.89
44825;BME280;30542;47.928;2.138;2023-05-23T04:53:30;100715.00;;;22.57;51.36
44825;BME280;30542;47.928;2.138;2023-05-23T04:58:30;100718.75;;;22.56;52.67
44825;BME280;30542;47.928;2.138;2023-05-23T05:03:31;100722.50;;;22.55;53.15
44825;BME280;30542;47.928;2.138;2023-05-23T05:08:31;100725.19;;;22.50;51.70
44825;BME280;30542;47.928;2.138;2023-05-23T05:13:31;100741.03;;;22.47;51.24
44825;BME280;30542;47.928;2.138;2023-05-23T05:18:32;100737.00;;;22.39;50.81
44825;BME280;30542;47.928;2.138;2023-05-23T05:23:32;100739.97;;;22.38;50.66
44825;BME280;30542;47.928;2.138;2023-05-23T05:28:32;100742.94;;;22.36;50.57
44825;BME280;30542;47.928;2.138;2023-05-23T05:33:33;100755.78;;;22.39;50.66
44825;BME280;30542;47.928;2.138;2023-05-23T05:38:36;100758.47;;;22.39;50.56
44825;BME280;30542;47.928;2.138;2023-05-23T05:43:37;100751.50;;;22.38;50.54
44825;BME280;30542;47.928;2.138;2023-05-23T05:48:37;100748.81;;;22.38;50.39
44825;BME280;30542;47.928;2.138;2023-05-23T05:53:37;100762.53;;;22.37;50.41
44825;BME280;30542;47.928;2.138;2023-05-23T05:58:38;100772.44;;;22.36;50.34
44825;BME280;30542;47.928;2.138;2023-05-23T06:03:38;100758.22;;;22.30;50.28
44825;BME280;30542;47.928;2.138;2023-05-23T06:08:38;100769.22;;;22.34;50.04
44825;BME280;30542;47.928;2.138;2023-05-23T06:13:39;100774.59;;;22.34;49.91
44825;BME280;30542;47.928;2.138;2023-05-23T06:18:39;100778.63;;;22.31;49.93
44825;BME280;30542;47.928;2.138;2023-05-23T06:23:40;100786.69;;;22.31;49.80
44825;BME280;30542;47.928;2.138;2023-05-23T06:28:40;100789.63;;;22.30;49.87
44825;BME280;30542;47.928;2.138;2023-05-23T06:33:41;100796.06;;;22.29;49.81
44825;BME280;30542;47.928;2.138;2023-05-23T06:38:42;100801.72;;;22.27;49.53
44825;BME280;30542;47.928;2.138;2023-05-23T06:43:42;100808.13;;;22.26;49.68
44825;BME280;30542;47.928;2.138;2023-05-23T06:48:42;100808.94;;;22.22;49.44
44825;BME280;30542;47.928;2.138;2023-05-23T06:53:43;100818.06;;;22.26;49.50
44825;BME280;30542;47.928;2.138;2023-05-23T06:58:43;100809.19;;;22.20;49.53
44825;BME280;30542;47.928;2.138;2023-05-23T07:03:43;100820.22;;;22.24;49.64
44825;BME280;30542;47.928;2.138;2023-05-23T07:08:44;100822.09;;;22.23;49.38
44825;BME280;30542;47.928;2.138;2023-05-23T07:13:45;100823.16;;;22.22;49.45
44825;BME280;30542;47.928;2.138;2023-05-23T07:18:46;100834.16;;;22.21;49.25
44825;BME280;30542;47.928;2.138;2023-05-23T07:23:46;100833.34;;;22.20;49.32
44825;BME280;30542;47.928;2.138;2023-05-23T07:28:47;100833.63;;;22.19;49.40
44825;BME280;30542;47.928;2.138;2023-05-23T07:33:47;100837.38;;;22.18;49.47
44825;BME280;30542;47.928;2.138;2023-05-23T07:38:47;100844.59;;;22.17;49.36
44825;BME280;30542;47.928;2.138;2023-05-23T07:43:48;100840.03;;;22.18;49.37
44825;BME280;30542;47.928;2.138;2023-05-23T07:48:48;100840.31;;;22.16;49.30
44825;BME280;30542;47.928;2.138;2023-05-23T07:53:48;100843.81;;;22.17;49.16
44825;BME280;30542;47.928;2.138;2023-05-23T07:58:49;100844.09;;;22.15;49.32
44825;BME280;30542;47.928;2.138;2023-05-23T08:08:50;100858.81;;;22.13;49.01
44825;BME280;30542;47.928;2.138;2023-05-23T08:13:50;100862.31;;;22.13;49.04
44825;BME280;30542;47.928;2.138;2023-05-23T08:18:50;100872.22;;;22.13;48.80
44825;BME280;30542;47.928;2.138;2023-05-23T08:23:51;100865.22;;;22.12;49.00
44825;BME280;30542;47.928;2.138;2023-05-23T08:28:51;100876.78;;;22.12;48.82
44825;BME280;30542;47.928;2.138;2023-05-23T08:33:52;100875.16;;;22.11;48.97
44825;BME280;30542;47.928;2.138;2023-05-23T08:38:52;100873.53;;;22.10;48.89
44825;BME280;30542;47.928;2.138;2023-05-23T08:43:53;100885.34;;;22.09;49.04
44825;BME280;30542;47.928;2.138;2023-05-23T08:48:54;100881.84;;;22.08;49.02
44825;BME280;30542;47.928;2.138;2023-05-23T08:53:55;100884.81;;;22.07;48.96
44825;BME280;30542;47.928;2.138;2023-05-23T08:58:56;100877.00;;;22.05;48.84
44825;BME280;30542;47.928;2.138;2023-05-23T09:03:57;100881.31;;;22.06;48.66
44825;BME280;30542;47.928;2.138;2023-05-23T09:09:03;100884.00;;;22.06;48.87
44825;BME280;30542;47.928;2.138;2023-05-23T09:14:04;100884.78;;;22.02;48.89
44825;BME280;30542;47.928;2.138;2023-05-23T09:19:11;100888.53;;;22.06;48.87
44825;BME280;30542;47.928;2.138;2023-05-23T09:24:12;100891.50;;;22.04;49.27
44825;BME280;30542;47.928;2.138;2023-05-23T09:29:17;100894.97;;;22.05;48.72
44825;BME280;30542;47.928;2.138;2023-05-23T09:34:18;100893.66;;;22.02;48.68
44825;BME280;30542;47.928;2.138;2023-05-23T09:39:18;100892.81;;;22.02;48.54
44825;BME280;30542;47.928;2.138;2023-05-23T09:44:22;100901.13;;;22.00;48.73
44825;BME280;30542;47.928;2.138;2023-05-23T09:49:25;100901.41;;;21.99;48.55
44825;BME280;30542;47.928;2.138;2023-05-23T09:54:25;100900.06;;;21.96;48.49
44825;BME280;30542;47.928;2.138;2023-05-23T09:59:27;100908.09;;;21.96;48.73
44825;BME280;30542;47.928;2.138;2023-05-23T10:04:33;100894.69;;;21.91;48.56
44825;BME280;30542;47.928;2.138;2023-05-23T10:09:37;100905.69;;;21.95;48.56
44825;BME280;30542;47.928;2.138;2023-05-23T10:14:43;100917.22;;;21.95;48.65
44825;BME280;30542;47.928;2.138;2023-05-23T10:19:55;100915.63;;;21.94;48.46
44825;BME280;30542;47.928;2.138;2023-05-23T10:24:57;100909.16;;;21.90;48.44
44825;BME280;30542;47.928;2.138;2023-05-23T10:29:58;100912.66;;;21.96;48.52
44825;BME280;30542;47.928;2.138;2023-05-23T10:45:39;100908.91;;;22.02;48.67
44825;BME280;30542;47.928;2.138;2023-05-23T10:50:43;100905.44;;;22.01;48.88
44825;BME280;30542;47.928;2.138;2023-05-23T10:55:47;100901.41;;;21.99;48.89
44825;BME280;30542;47.928;2.138;2023-05-23T11:01:01;100907.06;;;22.02;49.04
44825;BME280;30542;47.928;2.138;2023-05-23T11:06:04;100915.63;;;22.04;49.33
44825;BME280;30542;47.928;2.138;2023-05-23T11:11:05;100907.88;;;22.03;49.23
44825;BME280;30542;47.928;2.138;2023-05-23T11:16:31;100916.19;;;22.06;49.66
44825;BME280;30542;47.928;2.138;2023-05-23T11:21:32;100919.94;;;22.05;49.39
44825;BME280;30542;47.928;2.138;2023-05-23T11:26:32;100921.56;;;22.06;49.27
44825;BME280;30542;47.928;2.138;2023-05-23T11:31:38;100917.81;;;22.07;49.42
44825;BME280;30542;47.928;2.138;2023-05-23T11:36:39;100907.06;;;22.07;49.30
44825;BME280;30542;47.928;2.138;2023-05-23T11:41:40;100914.31;;;22.07;49.28
44825;BME280;30542;47.928;2.138;2023-05-23T11:46:41;100912.44;;;22.07;49.37
44825;BME280;30542;47.928;2.138;2023-05-23T11:51:57;100908.94;;;22.07;49.50
44825;BME280;30542;47.928;2.138;2023-05-23T11:56:59;100916.19;;;22.06;49.46
44825;BME280;30542;47.928;2.138;2023-05-23T12:02:01;100909.75;;;22.07;49.42
44825;BME280;30542;47.928;2.138;2023-05-23T12:07:05;100899.81;;;22.08;49.31
44825;BME280;30542;47.928;2.138;2023-05-23T12:12:06;100907.59;;;22.09;49.46
44825;BME280;30542;47.928;2.138;2023-05-23T12:17:07;100912.44;;;22.07;49.42
44825;BME280;30542;47.928;2.138;2023-05-23T12:22:07;100913.78;;;22.10;49.50
44825;BME280;30542;47.928;2.138;2023-05-23T12:27:07;100914.03;;;22.08;49.59
44825;BME280;30542;47.928;2.138;2023-05-23T12:32:09;100920.47;;;22.02;49.92
44825;BME280;30542;47.928;2.138;2023-05-23T12:37:12;100909.41;;;21.94;50.13
44825;BME280;30542;47.928;2.138;2023-05-23T12:42:13;100922.28;;;21.92;50.83
44825;BME280;30542;47.928;2.138;2023-05-23T12:47:13;100909.69;;;21.87;51.16
44825;BME280;30542;47.928;2.138;2023-05-23T12:52:14;100918.56;;;21.98;51.17
44825;BME280;30542;47.928;2.138;2023-05-23T12:57:14;100917.50;;;21.99;51.48
44825;BME280;30542;47.928;2.138;2023-05-23T13:02:14;100922.59;;;22.00;51.89
44825;BME280;30542;47.928;2.138;2023-05-23T13:07:15;100916.44;;;22.05;52.02
44825;BME280;30542;47.928;2.138;2023-05-23T13:12:15;100920.78;;;22.11;51.87
44825;BME280;30542;47.928;2.138;2023-05-23T13:17:16;100914.38;;;22.17;51.63
44825;BME280;30542;47.928;2.138;2023-05-23T13:22:16;100905.00;;;22.20;51.20
44825;BME280;30542;47.928;2.138;2023-05-23T13:27:17;100918.41;;;22.25;51.30
44825;BME280;30542;47.928;2.138;2023-05-23T13:32:17;100906.59;;;22.26;51.23
44825;BME280;30542;47.928;2.138;2023-05-23T13:37:17;100893.75;;;22.28;51.02
44825;BME280;30542;47.928;2.138;2023-05-23T13:42:18;100904.47;;;22.28;51.09
44825;BME280;30542;47.928;2.138;2023-05-23T13:47:18;100906.09;;;22.29;51.00
44825;BME280;30542;47.928;2.138;2023-05-23T13:52:18;100899.13;;;22.28;50.72
44825;BME280;30542;47.928;2.138;2023-05-23T13:57:19;100888.38;;;22.28;50.64
44825;BME280;30542;47.928;2.138;2023-05-23T14:02:19;100888.38;;;22.28;50.96
44825;BME280;30542;47.928;2.138;2023-05-23T14:07:21;100887.31;;;22.29;51.02
44825;BME280;30542;47.928;2.138;2023-05-23T14:12:22;100876.00;;;22.27;51.25
44825;BME280;30542;47.928;2.138;2023-05-23T14:17:22;100878.69;;;22.27;51.68
44825;BME280;30542;47.928;2.138;2023-05-23T14:22:22;100877.38;;;22.24;51.64
44825;BME280;30542;47.928;2.138;2023-05-23T14:27:23;100873.59;;;22.25;51.86
44825;BME280;30542;47.928;2.138;2023-05-23T14:32:23;100883.53;;;22.25;51.86
44825;BME280;30542;47.928;2.138;2023-05-23T14:37:24;100881.13;;;22.23;52.10
44825;BME280;30542;47.928;2.138;2023-05-23T14:42:24;100871.44;;;22.22;52.03
44825;BME280;30542;47.928;2.138;2023-05-23T14:47:24;100878.69;;;22.22;51.79
44825;BME280;30542;47.928;2.138;2023-05-23T14:52:25;100870.13;;;22.20;51.92
44825;BME280;30542;47.928;2.138;2023-05-23T14:57:25;100866.34;;;22.21;51.86
44825;BME280;30542;47.928;2.138;2023-05-23T15:02:25;100855.09;;;22.19;51.83
44825;BME280;30542;47.928;2.138;2023-05-23T15:07:26;100863.16;;;22.19;51.74
44825;BME280;30542;47.928;2.138;2023-05-23T15:12:27;100851.56;;;22.18;51.63
44825;BME280;30542;47.928;2.138;2023-05-23T15:17:33;100850.78;;;22.18;51.75
44825;BME280;30542;47.928;2.138;2023-05-23T15:22:33;100856.16;;;22.18;51.02
44825;BME280;30542;47.928;2.138;2023-05-23T15:27:34;100835.47;;;22.13;51.16
44825;BME280;30542;47.928;2.138;2023-05-23T15:32:34;100843.00;;;22.16;51.30
44825;BME280;30542;47.928;2.138;2023-05-23T15:37:35;100830.66;;;22.15;51.51
44825;BME280;30542;47.928;2.138;2023-05-23T15:42:35;100827.19;;;22.15;51.31
44825;BME280;30542;47.928;2.138;2023-05-23T15:47:36;100829.59;;;22.16;51.28
44825;BME280;30542;47.928;2.138;2023-05-23T15:57:36;100833.88;;;22.17;50.95
44825;BME280;30542;47.928;2.138;2023-05-23T16:02:36;100826.91;;;22.16;50.45
44825;BME280;30542;47.928;2.138;2023-05-23T16:07:37;100812.13;;;22.14;49.78
44825;BME280;30542;47.928;2.138;2023-05-23T16:12:37;100815.34;;;22.11;48.87
44825;BME280;30542;47.928;2.138;2023-05-23T16:17:38;100814.25;;;22.12;48.66
44825;BME280;30542;47.928;2.138;2023-05-23T16:22:39;100812.66;;;22.11;48.43
44825;BME280;30542;47.928;2.138;2023-05-23T16:27:39;100803.78;;;22.10;48.48
44825;BME280;30542;47.928;2.138;2023-05-23T16:32:39;100796.81;;;22.09;48.21
44825;BME280;30542;47.928;2.138;2023-05-23T16:37:40;100790.38;;;22.10;48.27
44825;BME280;30542;47.928;2.138;2023-05-23T16:42:40;100783.16;;;22.11;48.14
44825;BME280;30542;47.928;2.138;2023-05-23T16:47:41;100782.88;;;22.12;48.06
44825;BME280;30542;47.928;2.138;2023-05-23T16:57:41;100770.84;;;22.15;48.15
44825;BME280;30542;47.928;2.138;2023-05-23T17:02:41;100776.19;;;22.20;48.13
44825;BME280;30542;47.928;2.138;2023-05-23T17:07:42;100769.75;;;22.21;48.19
44825;BME280;30542;47.928;2.138;2023-05-23T17:12:42;100763.31;;;22.22;48.27
44825;BME280;30542;47.928;2.138;2023-05-23T17:17:43;100760.38;;;22.23;48.18
44825;BME280;30542;47.928;2.138;2023-05-23T17:22:43;100762.22;;;22.23;48.26
44825;BME280;30542;47.928;2.138;2023-05-23T17:27:43;100764.38;;;22.21;48.06
44825;BME280;30542;47.928;2.138;2023-05-23T17:32:45;100765.72;;;22.18;48.26
44825;BME280;30542;47.928;2.138;2023-05-23T17:37:45;100764.91;;;22.18;47.82
44825;BME280;30542;47.928;2.138;2023-05-23T17:42:46;100770.56;;;22.16;48.24
44825;BME280;30542;47.928;2.138;2023-05-23T17:47:46;100772.97;;;22.18;48.14
44825;BME280;30542;47.928;2.138;2023-05-23T17:52:46;100772.97;;;22.18;48.27
44825;BME280;30542;47.928;2.138;2023-05-23T17:57:47;100775.66;;;22.18;48.03
44825;BME280;30542;47.928;2.138;2023-05-23T18:02:47;100775.94;;;22.16;48.36
44825;BME280;30542;47.928;2.138;2023-05-23T18:07:48;100779.41;;;22.17;48.03
44825;BME280;30542;47.928;2.138;2023-05-23T18:12:49;100782.06;;;22.12;48.00
44825;BME280;30542;47.928;2.138;2023-05-23T18:17:49;100800.88;;;22.17;48.19
44825;BME280;30542;47.928;2.138;2023-05-23T18:22:53;100796.03;;;22.14;47.99
44825;BME280;30542;47.928;2.138;2023-05-23T18:27:54;100815.66;;;22.19;48.16
44825;BME280;30542;47.928;2.138;2023-05-23T18:32:54;100816.16;;;22.16;48.16
44825;BME280;30542;47.928;2.138;2023-05-23T18:37:55;100818.06;;;22.21;48.15
44825;BME280;30542;47.928;2.138;2023-05-23T18:42:55;100819.66;;;22.22;48.33
44825;BME280;30542;47.928;2.138;2023-05-23T18:47:56;100830.94;;;22.29;48.33
44825;BME280;30542;47.928;2.138;2023-05-23T18:52:57;100829.34;;;22.28;48.53
44825;BME280;30542;47.928;2.138;2023-05-23T18:57:57;100833.34;;;22.25;48.65
44825;BME280;30542;47.928;2.138;2023-05-23T19:02:58;100839.00;;;22.24;48.51
44825;BME280;30542;47.928;2.138;2023-05-23T19:07:58;100841.13;;;22.22;48.60
44825;BME280;30542;47.928;2.138;2023-05-23T19:12:59;100857.22;;;22.22;48.61
44825;BME280;30542;47.928;2.138;2023-05-23T19:18:00;100862.59;;;22.22;48.62
44825;BME280;30542;47.928;2.138;2023-05-23T19:23:00;100870.13;;;22.20;48.68
44825;BME280;30542;47.928;2.138;2023-05-23T19:28:01;100890.22;;;22.17;49.06
44825;BME280;30542;47.928;2.138;2023-05-23T19:33:01;100893.72;;;22.18;48.89
44825;BME280;30542;47.928;2.138;2023-05-23T19:38:01;100893.72;;;22.18;49.00
44825;BME280;30542;47.928;2.138;2023-05-23T19:43:02;100905.25;;;22.18;49.16
44825;BME280;30542;47.928;2.138;2023-05-23T19:48:02;100891.25;;;22.11;48.75
44825;BME280;30542;47.928;2.138;2023-05-23T19:53:02;100909.81;;;22.18;49.04
44825;BME280;30542;47.928;2.138;2023-05-23T19:58:04;100929.16;;;22.20;48.79
44825;BME280;30542;47.928;2.138;2023-05-23T20:03:04;100943.63;;;22.19;48.56
44825;BME280;30542;47.928;2.138;2023-05-23T20:08:05;100950.03;;;22.13;49.02
44825;BME280;30542;47.928;2.138;2023-05-23T20:18:06;100955.41;;;22.13;48.86
44825;BME280;30542;47.928;2.138;2023-05-23T20:23:07;100968.31;;;22.16;48.94
44825;BME280;30542;47.928;2.138;2023-05-23T20:33:08;100953.22;;;22.09;48.94
44825;BME280;30542;47.928;2.138;2023-05-23T20:38:08;100964.25;;;22.13;49.10
44825;BME280;30542;47.928;2.138;2023-05-23T20:43:08;100958.09;;;22.13;48.90
44825;BME280;30542;47.928;2.138;2023-05-23T20:48:09;100965.31;;;22.12;49.09
44825;BME280;30542;47.928;2.138;2023-05-23T20:53:09;100959.13;;;22.12;48.79
44825;BME280;30542;47.928;2.138;2023-05-23T20:58:10;100970.66;;;22.12;48.84
44825;BME280;30542;47.928;2.138;2023-05-23T21:03:10;100964.75;;;22.10;48.89
44825;BME280;30542;47.928;2.138;2023-05-23T21:08:10;100955.59;;;22.06;49.04
44825;BME280;30542;47.928;2.138;2023-05-23T21:13:11;100963.41;;;22.07;48.95
44825;BME280;30542;47.928;2.138;2023-05-23T21:18:11;100965.53;;;22.05;48.88
44825;BME280;30542;47.928;2.138;2023-05-23T21:23:11;100966.59;;;22.04;48.98
44825;BME280;30542;47.928;2.138;2023-05-23T21:28:12;100968.50;;;22.04;48.80
44825;BME280;30542;47.928;2.138;2023-05-23T21:33:12;100973.84;;;22.04;48.63
44825;BME280;30542;47.928;2.138;2023-05-23T21:38:12;100976.81;;;22.02;49.37
44825;BME280;30542;47.928;2.138;2023-05-23T21:43:13;100977.06;;;22.01;49.26
44825;BME280;30542;47.928;2.138;2023-05-23T21:48:13;100980.00;;;21.99;49.57
44825;BME280;30542;47.928;2.138;2023-05-23T21:53:13;100978.41;;;21.98;49.18
44825;BME280;30542;47.928;2.138;2023-05-23T21:58:14;100985.59;;;21.98;49.10
44825;BME280;30542;47.928;2.138;2023-05-23T22:03:15;100982.13;;;21.97;49.23
44825;BME280;30542;47.928;2.138;2023-05-23T22:08:15;100973.03;;;21.98;49.21
44825;BME280;30542;47.928;2.138;2023-05-23T22:13:17;100976.81;;;22.02;48.94
44825;BME280;30542;47.928;2.138;2023-05-23T22:18:17;100986.19;;;22.05;48.93
44825;BME280;30542;47.928;2.138;2023-05-23T22:23:18;100991.81;;;22.03;48.82
44825;BME280;30542;47.928;2.138;2023-05-23T22:28:18;100998.50;;;22.01;48.86
44825;BME280;30542;47.928;2.138;2023-05-23T22:33:18;101005.47;;;21.97;48.95
44825;BME280;30542;47.928;2.138;2023-05-23T22:38:19;100992.53;;;21.89;48.82
44825;BME280;30542;47.928;2.138;2023-05-23T22:43:19;100999.28;;;21.91;49.07
44825;BME280;30542;47.928;2.138;2023-05-23T22:48:20;100993.91;;;21.91;49.10
44825;BME280;30542;47.928;2.138;2023-05-23T22:53:21;100996.59;;;21.91;49.14
44825;BME280;30542;47.928;2.138;2023-05-23T22:58:21;100985.06;;;21.91;48.93
44825;BME280;30542;47.928;2.138;2023-05-23T23:03:22;101000.34;;;21.90;48.96
44825;BME280;30542;47.928;2.138;2023-05-23T23:08:22;101003.03;;;21.90;49.09
44825;BME280;30542;47.928;2.138;2023-05-23T23:13:23;101002.47;;;21.88;48.95
44825;BME280;30542;47.928;2.138;2023-05-23T23:18:24;100998.19;;;21.87;49.02
44825;BME280;30542;47.928;2.138;2023-05-23T23:23:25;101001.66;;;21.88;49.04
44825;BME280;30542;47.928;2.138;2023-05-23T23:28:26;100992.25;;;21.85;48.80
44825;BME280;30542;47.928;2.138;2023-05-23T23:33:26;100988.75;;;21.84;48.85
44825;BME280;30542;47.928;2.138;2023-05-23T23:38:26;100990.66;;;21.84;48.86
44825;BME280;30542;47.928;2.138;2023-05-23T23:43:27;100982.59;;;21.84;48.95
44825;BME280;30542;47.928;2.138;2023-05-23T23:48:27;100969.69;;;21.81;48.94
44825;BME280;30542;47.928;2.138;2023-05-23T23:53:27;100978.81;;;21.80;49.01
44825;BME280;30542;47.928;2.138;2023-05-23T23:58:29;100972.66;;;21.79;48.81
